createdAt,value
2024-02-13T00:01:23.701Z,14.31
2024-02-13T00:06:26.656Z,14.24
2024-02-13T00:11:32.545Z,14.19
2024-02-13T00:16:52.379Z,14.15
2024-02-13T00:22:06.072Z,14.12
2024-02-13T00:27:08.521Z,14.12
2024-02-13T00:32:10.748Z,14.13
2024-02-13T00:37:12.911Z,14.12
2024-02-13T00:42:15.303Z,14.07
2024-02-13T00:47:19.794Z,14.04
2024-02-13T00:52:22.800Z,14.02
2024-02-13T00:57:25.904Z,14.02
2024-02-13T01:02:28.283Z,13.99
2024-02-13T01:07:32.068Z,13.96
2024-02-13T01:12:34.282Z,13.94
2024-02-13T01:17:36.474Z,13.93
2024-02-13T01:22:39.509Z,13.90
2024-02-13T01:27:42.281Z,13.89
2024-02-13T01:32:45.075Z,13.88
2024-02-13T01:37:50.062Z,13.87
2024-02-13T01:42:53.298Z,13.87
2024-02-13T01:47:57.514Z,13.86
2024-02-13T01:53:00.371Z,13.81
2024-02-13T01:58:05.621Z,13.74
2024-02-13T02:16:10.368Z,14.22
2024-02-13T02:21:12.941Z,14.08
2024-02-13T02:26:15.324Z,13.97
2024-02-13T02:31:17.730Z,13.86
2024-02-13T02:36:20.776Z,13.71
2024-02-13T02:41:23.157Z,13.57
2024-02-13T02:46:25.276Z,13.42
2024-02-13T02:51:29.596Z,13.31
2024-02-13T02:56:41.038Z,13.26
2024-02-13T03:01:46.257Z,13.20
2024-02-13T03:06:57.986Z,13.18
2024-02-13T03:12:01.777Z,13.14
2024-02-13T03:17:08.513Z,12.98
2024-02-13T03:22:28.839Z,12.84
2024-02-13T03:27:39.224Z,12.73
2024-02-13T03:32:45.638Z,12.71
2024-02-13T03:37:51.632Z,12.71
2024-02-13T03:42:58.145Z,12.72
2024-02-13T03:48:10.832Z,12.74
2024-02-13T03:53:19.444Z,12.78
2024-02-13T03:58:25.609Z,12.80
2024-02-13T04:03:30.245Z,12.81
2024-02-13T04:08:32.458Z,12.85
2024-02-13T04:14:00.190Z,12.82
2024-02-13T04:19:03.977Z,12.75
2024-02-13T04:24:08.869Z,12.72
2024-02-13T04:29:11.368Z,12.66
2024-02-13T04:34:13.707Z,12.55
2024-02-13T04:39:18.719Z,12.46
2024-02-13T04:44:23.468Z,12.41
2024-02-13T04:49:25.993Z,12.39
2024-02-13T04:54:30.997Z,12.39
2024-02-13T04:59:39.340Z,12.40
2024-02-13T05:05:04.150Z,12.40
2024-02-13T05:10:30.034Z,12.41
2024-02-13T05:15:40.400Z,12.43
2024-02-13T05:20:53.273Z,12.41
2024-02-13T05:26:06.798Z,12.40
2024-02-13T05:31:12.040Z,12.37
2024-02-13T05:36:33.186Z,12.34
2024-02-13T05:41:39.242Z,12.29
2024-02-13T05:52:14.961Z,12.24
2024-02-13T06:02:48.639Z,12.18
2024-02-13T06:07:55.341Z,12.19
2024-02-13T06:13:00.813Z,12.19
2024-02-13T06:18:15.307Z,12.18
2024-02-13T06:23:21.985Z,12.15
2024-02-13T06:28:29.807Z,12.12
2024-02-13T06:33:34.612Z,12.11
2024-02-13T06:38:39.284Z,12.05
2024-02-13T06:43:43.935Z,12.01
2024-02-13T06:48:54.514Z,11.97
2024-02-13T06:54:03.077Z,11.97
2024-02-13T06:59:17.618Z,11.97
2024-02-13T07:04:23.765Z,11.99
2024-02-13T07:09:27.407Z,12.03
2024-02-13T07:14:35.868Z,12.15
2024-02-13T07:19:43.233Z,12.26
2024-02-13T07:24:51.413Z,12.37
2024-02-13T07:30:00.749Z,12.42
2024-02-13T07:35:18.913Z,12.42
2024-02-13T07:40:28.152Z,12.40
2024-02-13T07:45:37.877Z,12.40
2024-02-13T07:50:45.374Z,12.42
2024-02-13T07:55:49.914Z,12.45
2024-02-13T08:00:53.545Z,12.48
2024-02-13T08:06:07.317Z,12.56
2024-02-13T08:11:14.647Z,12.57
2024-02-13T08:16:17.095Z,12.59
2024-02-13T08:21:26.610Z,12.64
2024-02-13T08:26:30.648Z,12.86
2024-02-13T08:31:35.693Z,13.22
2024-02-13T08:36:46.139Z,13.99
2024-02-13T08:41:51.663Z,14.46
2024-02-13T08:46:56.174Z,15.09
2024-02-13T08:52:07.937Z,15.53
2024-02-13T08:57:10.749Z,16.02
2024-02-13T09:02:17.140Z,16.80
2024-02-13T09:07:32.527Z,17.36
2024-02-13T09:12:35.870Z,17.44
2024-02-13T09:17:48.198Z,17.75
2024-02-13T09:23:00.694Z,18.06
2024-02-13T09:28:14.241Z,18.48
2024-02-13T09:33:27.771Z,18.90
2024-02-13T09:38:40.344Z,19.09
2024-02-13T09:43:58.408Z,19.29
2024-02-13T09:49:06.722Z,19.57
2024-02-13T09:54:16.130Z,19.66
2024-02-13T10:04:46.493Z,19.44
2024-02-13T10:09:50.583Z,19.33
2024-02-13T10:14:59.774Z,19.05
2024-02-13T10:20:07.604Z,18.66
2024-02-13T10:25:12.051Z,18.96
2024-02-13T10:30:24.803Z,19.25
2024-02-13T10:35:30.731Z,19.53
2024-02-13T10:40:37.037Z,19.69
2024-02-13T10:45:40.026Z,19.87
2024-02-13T10:50:45.077Z,19.93
2024-02-13T10:55:51.598Z,19.56
2024-02-13T11:00:56.240Z,19.58
2024-02-13T11:05:58.818Z,19.61
2024-02-13T11:11:04.910Z,19.38
2024-02-13T11:16:10.447Z,19.18
2024-02-13T11:21:12.592Z,18.92
2024-02-13T11:26:21.217Z,18.17
2024-02-13T11:31:27.513Z,17.93
2024-02-13T11:36:31.075Z,17.77
2024-02-13T11:41:35.487Z,18.00
2024-02-13T11:46:55.392Z,18.20
2024-02-13T11:51:57.953Z,18.44
2024-02-13T11:57:03.120Z,18.59
2024-02-13T12:02:16.117Z,18.68
2024-02-13T12:07:18.652Z,18.30
2024-02-13T12:12:21.817Z,18.27
2024-02-13T12:17:24.198Z,18.50
2024-02-13T12:22:29.752Z,18.36
2024-02-13T12:27:33.014Z,18.17
2024-02-13T12:32:39.806Z,17.90
2024-02-13T12:37:42.869Z,17.44
2024-02-13T12:42:45.133Z,17.40
2024-02-13T12:47:47.603Z,17.57
2024-02-13T12:52:50.556Z,17.92
2024-02-13T12:57:56.098Z,17.96
2024-02-13T13:03:00.435Z,17.72
2024-02-13T13:08:05.902Z,17.91
2024-02-13T13:13:08.358Z,18.15
2024-02-13T13:18:20.602Z,18.52
2024-02-13T13:23:26.157Z,18.54
2024-02-13T13:28:30.813Z,18.53
2024-02-13T13:33:35.333Z,18.48
2024-02-13T13:38:37.879Z,18.43
2024-02-13T13:43:40.088Z,18.50
2024-02-13T13:48:45.220Z,18.38
2024-02-13T13:53:51.102Z,18.39
2024-02-13T13:58:53.202Z,18.48
2024-02-13T14:03:56.900Z,18.29
2024-02-13T14:08:59.108Z,18.11
2024-02-13T14:14:03.774Z,18.26
2024-02-13T14:19:07.067Z,18.31
2024-02-13T14:24:12.922Z,18.08
2024-02-13T14:29:16.332Z,17.88
2024-02-13T14:47:05.710Z,18.12
2024-02-13T14:52:11.173Z,17.86
2024-02-13T14:57:14.523Z,17.71
2024-02-13T15:02:17.209Z,17.69
2024-02-13T15:07:20.561Z,17.61
2024-02-13T15:12:25.573Z,17.45
2024-02-13T15:17:27.969Z,17.15
2024-02-13T15:22:31.506Z,17.17
2024-02-13T15:27:33.949Z,17.27
2024-02-13T15:32:36.284Z,17.15
2024-02-13T15:37:57.030Z,17.08
2024-02-13T15:43:17.673Z,17.12
2024-02-13T15:48:27.108Z,17.00
2024-02-13T15:53:31.502Z,16.94
2024-02-13T15:58:33.930Z,16.83
2024-02-13T16:03:37.948Z,16.78
2024-02-13T16:08:42.509Z,16.64
2024-02-13T16:13:46.770Z,16.57
2024-02-13T16:18:49.401Z,16.41
2024-02-13T16:23:51.959Z,16.30
2024-02-13T16:28:54.670Z,16.26
2024-02-13T16:33:57.222Z,16.21
2024-02-13T16:38:59.687Z,16.13
2024-02-13T16:44:02.049Z,15.99
2024-02-13T16:49:04.800Z,15.82
2024-02-13T16:54:08.426Z,15.74
2024-02-13T16:59:10.923Z,15.72
2024-02-13T17:04:14.569Z,15.69
2024-02-13T17:09:17.186Z,15.67
2024-02-13T17:14:20.708Z,15.67
2024-02-13T17:19:23.184Z,15.62
2024-02-13T17:24:25.551Z,15.56
2024-02-13T17:29:27.771Z,15.53
2024-02-13T17:34:30.216Z,15.49
2024-02-13T17:39:37.784Z,15.45
2024-02-13T17:44:40.636Z,15.40
2024-02-13T17:49:43.392Z,15.37
2024-02-13T17:54:57.627Z,15.36
2024-02-13T18:00:00.584Z,15.32
2024-02-13T18:05:03.060Z,15.25
2024-02-13T18:10:05.520Z,15.22
2024-02-13T18:15:10.892Z,15.14
2024-02-13T18:20:16.372Z,15.10
2024-02-13T18:25:19.268Z,15.05
2024-02-13T18:30:21.588Z,15.02
2024-02-13T18:35:24.264Z,14.96
2024-02-13T18:40:26.635Z,14.92
2024-02-13T18:45:34.653Z,14.87
2024-02-13T18:50:39.992Z,14.85
2024-02-13T18:55:46.639Z,14.80
2024-02-13T19:00:51.480Z,14.75
2024-02-13T19:05:53.783Z,14.73
2024-02-13T19:10:57.653Z,14.69
2024-02-13T19:16:00.940Z,14.66
2024-02-13T19:21:03.353Z,14.63
2024-02-13T19:26:09.377Z,14.61
2024-02-13T19:31:25.394Z,14.60
2024-02-13T19:36:36.178Z,14.59
2024-02-13T19:41:47.470Z,14.56
2024-02-13T19:46:49.892Z,14.52
2024-02-13T19:51:53.709Z,14.50
2024-02-13T19:56:56.105Z,14.47
2024-02-13T20:01:59.664Z,14.42
2024-02-13T20:07:01.928Z,14.39
2024-02-13T20:12:09.059Z,14.36
2024-02-13T20:17:11.692Z,14.34
2024-02-13T20:22:14.751Z,14.33
2024-02-13T20:27:17.017Z,14.30
2024-02-13T20:32:22.264Z,14.27
2024-02-13T20:37:26.041Z,14.22
2024-02-13T20:42:32.061Z,14.22
2024-02-13T20:47:40.927Z,14.22
2024-02-13T20:52:47.841Z,14.20
2024-02-13T20:57:56.604Z,14.19
2024-02-13T21:03:03.219Z,14.15
2024-02-13T21:08:06.793Z,14.06
2024-02-13T21:13:09.010Z,13.96
2024-02-13T21:18:14.714Z,13.87
2024-02-13T21:23:37.377Z,13.79
2024-02-13T21:28:42.700Z,13.72
2024-02-13T21:33:45.678Z,13.66
2024-02-13T21:38:48.204Z,13.62
2024-02-13T21:43:50.649Z,13.54
2024-02-13T21:48:53.279Z,13.46
2024-02-13T21:54:01.218Z,13.42
2024-02-13T21:59:03.792Z,13.37
2024-02-13T22:04:06.157Z,13.33
2024-02-13T22:09:13.544Z,13.27
2024-02-13T22:14:16.443Z,13.21
2024-02-13T22:19:20.982Z,13.16
2024-02-13T22:24:26.153Z,13.11
2024-02-13T22:29:37.886Z,13.06
2024-02-13T22:34:46.614Z,12.99
2024-02-13T22:39:55.301Z,12.94
2024-02-13T22:44:59.274Z,12.92
2024-02-13T22:50:12.516Z,12.91
2024-02-13T22:55:20.584Z,12.88
2024-02-13T23:00:57.216Z,12.83
2024-02-13T23:06:00.231Z,12.77
2024-02-13T23:11:06.095Z,12.71
2024-02-13T23:16:11.867Z,12.64
2024-02-13T23:21:14.645Z,12.56
2024-02-13T23:26:22.246Z,12.50
2024-02-13T23:31:53.494Z,12.46
2024-02-13T23:37:14.043Z,12.43
2024-02-13T23:42:43.559Z,12.36
2024-02-13T23:47:49.889Z,12.31
2024-02-13T23:52:56.784Z,12.31
2024-02-13T23:58:00.195Z,12.25
